Aeroporto :
LOGIN :

Iscrizione | Disclaimer

   EN    FR    IT 

 










Sommario :    VFR   VFR Marginale   IFR   IFR Intensivo   IFR Molto Intensivo
Visibilità : 
Base nubi : 
>= 8 km
>= 3000ft
5 / 8 km
1000 / 3000 ft
1500m / 5 km
500 / 1000 ft
800 / 1500m
200 / 500 ft
< 800m
< 200 ft
Simboli :   Temporali  Nebbia  Neve Forte  Precipitazioni Forti  Vento > 20 kt
SIGMETs :   Varie  Temporali  Ghiacco  Turbolenza  Onda orograficha  Ceneri Vulcaniche






- Altitudine del aeroporto : 17 ft
- Codice IATA : MPL


LFMT - Montpellier Méditerranée

ULTIMO METAR :
  • 121300Z AUTO 19006KT 160V220 9999 OVC034 13/06 Q1008 NOSIG

METARs OBSOLETI :
  • 121230Z AUTO 26009KT 220V280 9999 BKN035 BKN044 12/04 Q1009 NOSIG
  • 121200Z AUTO 26011KT CAVOK 11/04 Q1010 NOSIG
  • 121130Z AUTO 27012KT CAVOK 11/04 Q1011 NOSIG
  • 121100Z AUTO 26014KT CAVOK 10/04 Q1011 NOSIG
  • 121030Z AUTO 27012KT CAVOK 11/04 Q1012 NOSIG

TAF TAF LFMT
Valido dal 12 a 09 ore il 13 a 09 ore UTC


120800Z 1209/1309 VRB05KT CAVOK
BECMG 1216/1219 RA OVC013
TEMPO 1219/1306 0200 RA FG VV///
TEMPO 1307/1309 32030G40KT
ATIS : +33 4 67 13 11 70



MetMap, La meteo Aeronautica in un colpo d'occhio ! - Copyright ORBIFLY Dicembre 2007 - Disclaimer

ORBIFLY MET'MAP TEAM :

Programmazione e sviluppo : Alexandra Zaïnal
Concezione : Baudouin d'Aumeries
Aiuto per la programmazione : Marc-Olivier Méhu
Supporto tecnico e logistico : Manuel Goepfert
Aiuto per la traduzione : Arnaldo La Scala

Contatto : metmap@orbifly.com




FONTI E CREDITI :

   NOAA